Waynesville, NC (28786)

2:50 PM EST on January 21, 2017 (GMT -0500)
Hazelwood | | Change Station

Elev 2736 ft 35.48 °N, 83.00 °W | Updated 22 seconds ago

Overcast
Overcast
51.6 °F
Feels Like 51.6 °F
N
0.0
Wind Variable Wind from NNE
Gusts 0.0 mph

Today
High -- | Low -- °F
--% Chance of Precip.
Yesterday
High -- | Low -- °F
Precip. -- in
Pressure 29.79 in
Visibility 3.0 miles
Clouds Mostly Cloudy 300 ft
Mostly Cloudy 6000 ft
Overcast 7000 ft
Dew Point 49 °F
Humidity 91%
Rainfall 0.15 in
Snow Depth Not available.
7:38 AM 5:48 PM
Waning Crescent, 32% visible
SPECI KAVL 211940Z 17003KT 3SM RA BR BKN003 BKN060 OVC070 11/10 A2979 RMK AO2 P0010 T01110100
Pressure 29.79 in
Visibility 3.0 miles
Clouds Mostly Cloudy 300 ft
Mostly Cloudy 6000 ft
Overcast 7000 ft
Dew Point 49 °F
Humidity 91%
Rainfall 0.15 in
Snow Depth Not available.
7:38 AM 5:48 PM
Waning Crescent, 32% visible
SPECI KAVL 211940Z 17003KT 3SM RA BR BKN003 BKN060 OVC070 11/10 A2979 RMK AO2 P0010 T01110100

Get Your Daily Forecast Email!

Thanks for signing up!

Be on the lookout for a verification email in your inbox.

You'll start receiving the daily forecast at 8 AM.

×

10-Day Weather Forecast

Almanac

Astronomy

Jan. 21, 2017 Rise Set
Actual Time
Civil Twilight
Nautical Twilight
Astronomical Twilight
Moon
Length of Visible Light
Length of Day
Tomorrow will be .
, % of the Moon is Illuminated

Today's Extremes

State Highs State Lows

Community

WunderPhotos

Upload Photos

1,962,540 photos uploaded!

WunderBlog® & News

Nearby

Air Quality

  Air Quality AQ Index Pollutant
Not available.

Snow Depth

Station Depth Elevation

Earthquake Activity

City Distance Mag. Time & Date
Minimum magnitude displayed is 2.5.

Coastal Water Temperatures

Place Temperature

Stations

Nearby Weather Stations

Station Location Temp. Windchill Dew Point Humidity Wind Precip. Elev Updated Type
                   

Watches & Warnings

There are currently no watches in effect.